sensor_id;sensor_type;location;lat;lon;timestamp;pressure;altitude;pressure_sealevel;temperature;humidity
36190;BME280;22232;50.914;13.858;2023-03-03T00:01:10;98218.75;;;-1.93;100.00
36190;BME280;22232;50.914;13.858;2023-03-03T00:03:37;98212.72;;;-1.93;100.00
36190;BME280;22232;50.914;13.858;2023-03-03T00:06:08;98219.88;;;-1.95;100.00
36190;BME280;22232;50.914;13.858;2023-03-03T00:08:37;98227.72;;;-1.95;100.00
36190;BME280;22232;50.914;13.858;2023-03-03T00:11:05;98225.25;;;-1.97;100.00
36190;BME280;22232;50.914;13.858;2023-03-03T00:13:48;98228.56;;;-1.95;100.00
36190;BME280;22232;50.914;13.858;2023-03-03T00:16:20;98225.78;;;-1.93;100.00
36190;BME280;22232;50.914;13.858;2023-03-03T00:18:49;98216.56;;;-1.88;100.00
36190;BME280;22232;50.914;13.858;2023-03-03T00:21:41;98224.94;;;-1.84;100.00
36190;BME280;22232;50.914;13.858;2023-03-03T00:27:01;98232.38;;;-1.79;100.00
36190;BME280;22232;50.914;13.858;2023-03-03T00:29:37;98233.72;;;-1.75;100.00
36190;BME280;22232;50.914;13.858;2023-03-03T00:35:01;98237.41;;;-1.68;100.00
36190;BME280;22232;50.914;13.858;2023-03-03T00:37:44;98242.50;;;-1.67;100.00
36190;BME280;22232;50.914;13.858;2023-03-03T00:42:57;98236.44;;;-1.57;100.00
36190;BME280;22232;50.914;13.858;2023-03-03T00:45:38;98230.09;;;-1.55;100.00
36190;BME280;22232;50.914;13.858;2023-03-03T00:48:19;98229.94;;;-1.53;100.00
36190;BME280;22232;50.914;13.858;2023-03-03T00:50:47;98228.94;;;-1.52;100.00
36190;BME280;22232;50.914;13.858;2023-03-03T00:53:17;98230.34;;;-1.48;100.00
36190;BME280;22232;50.914;13.858;2023-03-03T00:55:47;98235.13;;;-1.44;100.00
36190;BME280;22232;50.914;13.858;2023-03-03T00:58:16;98232.09;;;-1.39;100.00
36190;BME280;22232;50.914;13.858;2023-03-03T01:00:48;98245.97;;;-1.39;100.00
36190;BME280;22232;50.914;13.858;2023-03-03T01:03:21;98239.13;;;-1.40;100.00
36190;BME280;22232;50.914;13.858;2023-03-03T01:05:52;98233.03;;;-1.40;100.00
36190;BME280;22232;50.914;13.858;2023-03-03T01:08:20;98238.44;;;-1.42;100.00
36190;BME280;22232;50.914;13.858;2023-03-03T01:11:00;98232.38;;;-1.42;100.00
36190;BME280;22232;50.914;13.858;2023-03-03T01:13:32;98237.88;;;-1.45;100.00
36190;BME280;22232;50.914;13.858;2023-03-03T01:16:04;98232.78;;;-1.47;100.00
36190;BME280;22232;50.914;13.858;2023-03-03T01:18:32;98236.63;;;-1.41;100.00
36190;BME280;22232;50.914;13.858;2023-03-03T01:21:00;98233.03;;;-1.40;100.00
36190;BME280;22232;50.914;13.858;2023-03-03T01:23:28;98240.75;;;-1.39;100.00
36190;BME280;22232;50.914;13.858;2023-03-03T01:25:55;98242.25;;;-1.36;100.00
36190;BME280;22232;50.914;13.858;2023-03-03T01:28:23;98237.72;;;-1.44;100.00
36190;BME280;22232;50.914;13.858;2023-03-03T01:30:51;98238.19;;;-1.48;100.00
36190;BME280;22232;50.914;13.858;2023-03-03T01:33:19;98244.34;;;-1.49;100.00
36190;BME280;22232;50.914;13.858;2023-03-03T01:35:47;98244.06;;;-1.46;100.00
36190;BME280;22232;50.914;13.858;2023-03-03T01:38:15;98249.88;;;-1.43;100.00
36190;BME280;22232;50.914;13.858;2023-03-03T01:40:51;98238.56;;;-1.43;100.00
36190;BME280;22232;50.914;13.858;2023-03-03T01:43:19;98250.53;;;-1.41;100.00
36190;BME280;22232;50.914;13.858;2023-03-03T01:48:30;98242.84;;;-1.42;100.00
36190;BME280;22232;50.914;13.858;2023-03-03T01:51:01;98241.84;;;-1.41;100.00
36190;BME280;22232;50.914;13.858;2023-03-03T01:53:42;98246.41;;;-1.43;100.00
36190;BME280;22232;50.914;13.858;2023-03-03T01:56:10;98238.25;;;-1.40;100.00
36190;BME280;22232;50.914;13.858;2023-03-03T01:58:44;98239.53;;;-1.44;100.00
36190;BME280;22232;50.914;13.858;2023-03-03T02:01:15;98237.88;;;-1.45;100.00
36190;BME280;22232;50.914;13.858;2023-03-03T02:03:44;98240.94;;;-1.50;100.00
36190;BME280;22232;50.914;13.858;2023-03-03T02:06:16;98232.94;;;-1.48;100.00
36190;BME280;22232;50.914;13.858;2023-03-03T02:08:59;98236.22;;;-1.46;100.00
36190;BME280;22232;50.914;13.858;2023-03-03T02:11:30;98231.69;;;-1.44;100.00
36190;BME280;22232;50.914;13.858;2023-03-03T02:13:59;98225.91;;;-1.48;100.00
36190;BME280;22232;50.914;13.858;2023-03-03T02:16:26;98223.84;;;-1.44;100.00
36190;BME280;22232;50.914;13.858;2023-03-03T02:18:54;98226.59;;;-1.46;100.00
36190;BME280;22232;50.914;13.858;2023-03-03T02:21:23;98223.16;;;-1.46;100.00
36190;BME280;22232;50.914;13.858;2023-03-03T02:26:40;98227.50;;;-1.37;100.00
36190;BME280;22232;50.914;13.858;2023-03-03T02:29:10;98214.19;;;-1.44;100.00
36190;BME280;22232;50.914;13.858;2023-03-03T02:31:40;98216.66;;;-1.42;100.00
36190;BME280;22232;50.914;13.858;2023-03-03T02:34:08;98222.03;;;-1.44;100.00
36190;BME280;22232;50.914;13.858;2023-03-03T02:36:37;98227.13;;;-1.42;100.00
36190;BME280;22232;50.914;13.858;2023-03-03T02:39:15;98226.31;;;-1.43;100.00
36190;BME280;22232;50.914;13.858;2023-03-03T02:44:40;98227.13;;;-1.42;100.00
36190;BME280;22232;50.914;13.858;2023-03-03T02:47:08;98216.38;;;-1.39;100.00
36190;BME280;22232;50.914;13.858;2023-03-03T02:49:36;98219.00;;;-1.39;100.00
36190;BME280;22232;50.914;13.858;2023-03-03T02:52:07;98215.69;;;-1.41;100.00
36190;BME280;22232;50.914;13.858;2023-03-03T02:54:38;98211.03;;;-1.47;100.00
36190;BME280;22232;50.914;13.858;2023-03-03T02:57:06;98217.09;;;-1.47;100.00
36190;BME280;22232;50.914;13.858;2023-03-03T02:59:35;98223.16;;;-1.46;100.00
36190;BME280;22232;50.914;13.858;2023-03-03T03:02:12;98225.00;;;-1.56;100.00
36190;BME280;22232;50.914;13.858;2023-03-03T03:04:41;98231.19;;;-1.57;100.00
36190;BME280;22232;50.914;13.858;2023-03-03T03:07:14;98228.88;;;-1.60;100.00
36190;BME280;22232;50.914;13.858;2023-03-03T03:09:42;98224.22;;;-1.67;100.00
36190;BME280;22232;50.914;13.858;2023-03-03T03:12:09;98216.66;;;-1.70;100.00
36190;BME280;22232;50.914;13.858;2023-03-03T03:14:37;98221.97;;;-1.62;100.00
36190;BME280;22232;50.914;13.858;2023-03-03T03:17:06;98222.25;;;-1.65;100.00
36190;BME280;22232;50.914;13.858;2023-03-03T03:19:33;98231.47;;;-1.60;100.00
36190;BME280;22232;50.914;13.858;2023-03-03T03:22:02;98237.00;;;-1.64;100.00
36190;BME280;22232;50.914;13.858;2023-03-03T03:24:32;98240.00;;;-1.58;100.00
36190;BME280;22232;50.914;13.858;2023-03-03T03:27:03;98242.75;;;-1.60;100.00
36190;BME280;22232;50.914;13.858;2023-03-03T03:29:32;98247.84;;;-1.58;100.00
36190;BME280;22232;50.914;13.858;2023-03-03T03:31:59;98246.47;;;-1.63;100.00
36190;BME280;22232;50.914;13.858;2023-03-03T03:34:27;98242.34;;;-1.65;100.00
36190;BME280;22232;50.914;13.858;2023-03-03T03:36:56;98237.03;;;-1.73;100.00
36190;BME280;22232;50.914;13.858;2023-03-03T03:39:25;98229.31;;;-1.75;100.00
36190;BME280;22232;50.914;13.858;2023-03-03T03:41:53;98231.81;;;-1.73;100.00
36190;BME280;22232;50.914;13.858;2023-03-03T03:44:21;98235.50;;;-1.66;100.00
36190;BME280;22232;50.914;13.858;2023-03-03T03:46:51;98232.72;;;-1.65;100.00
36190;BME280;22232;50.914;13.858;2023-03-03T03:49:19;98238.91;;;-1.66;100.00
36190;BME280;22232;50.914;13.858;2023-03-03T03:51:49;98237.03;;;-1.73;100.00
36190;BME280;22232;50.914;13.858;2023-03-03T03:54:19;98239.09;;;-1.77;100.00
36190;BME280;22232;50.914;13.858;2023-03-03T03:56:48;98237.03;;;-1.73;100.00
36190;BME280;22232;50.914;13.858;2023-03-03T03:59:15;98239.78;;;-1.75;100.00
36190;BME280;22232;50.914;13.858;2023-03-03T04:01:43;98231.53;;;-1.70;100.00
36190;BME280;22232;50.914;13.858;2023-03-03T04:04:11;98232.09;;;-1.76;100.00
36190;BME280;22232;50.914;13.858;2023-03-03T04:06:39;98232.63;;;-1.73;100.00
36190;BME280;22232;50.914;13.858;2023-03-03T04:09:07;98240.47;;;-1.73;100.00
36190;BME280;22232;50.914;13.858;2023-03-03T04:11:35;98246.63;;;-1.64;100.00
36190;BME280;22232;50.914;13.858;2023-03-03T04:14:04;98243.88;;;-1.63;100.00
36190;BME280;22232;50.914;13.858;2023-03-03T04:16:34;98247.59;;;-1.65;100.00
36190;BME280;22232;50.914;13.858;2023-03-03T04:19:02;98256.81;;;-1.71;100.00
36190;BME280;22232;50.914;13.858;2023-03-03T04:21:32;98252.81;;;-1.65;100.00
36190;BME280;22232;50.914;13.858;2023-03-03T04:24:02;98248.69;;;-1.68;100.00
36190;BME280;22232;50.914;13.858;2023-03-03T04:26:30;98244.88;;;-1.73;100.00
36190;BME280;22232;50.914;13.858;2023-03-03T04:28:59;98262.06;;;-1.80;100.00
36190;BME280;22232;50.914;13.858;2023-03-03T04:31:28;98258.25;;;-1.76;100.00
36190;BME280;22232;50.914;13.858;2023-03-03T04:33:56;98262.66;;;-1.96;100.00
36190;BME280;22232;50.914;13.858;2023-03-03T04:36:25;98258.13;;;-2.04;100.00
36190;BME280;22232;50.914;13.858;2023-03-03T04:38:53;98261.03;;;-2.17;100.00
36190;BME280;22232;50.914;13.858;2023-03-03T04:41:21;98269.16;;;-2.29;100.00
36190;BME280;22232;50.914;13.858;2023-03-03T04:43:49;98270.13;;;-2.40;100.00
36190;BME280;22232;50.914;13.858;2023-03-03T04:46:16;98280.84;;;-2.43;100.00
36190;BME280;22232;50.914;13.858;2023-03-03T04:48:44;98280.72;;;-2.51;100.00
36190;BME280;22232;50.914;13.858;2023-03-03T04:51:12;98285.38;;;-2.36;100.00
36190;BME280;22232;50.914;13.858;2023-03-03T04:53:44;98281.81;;;-2.44;100.00
36190;BME280;22232;50.914;13.858;2023-03-03T04:56:11;98286.47;;;-2.38;100.00
36190;BME280;22232;50.914;13.858;2023-03-03T04:58:39;98295.69;;;-2.44;100.00
36190;BME280;22232;50.914;13.858;2023-03-03T05:01:06;98292.25;;;-2.35;100.00
36190;BME280;22232;50.914;13.858;2023-03-03T05:03:34;98287.44;;;-2.39;100.00
36190;BME280;22232;50.914;13.858;2023-03-03T05:06:02;98293.09;;;-2.34;100.00
36190;BME280;22232;50.914;13.858;2023-03-03T05:08:30;98286.63;;;-2.30;100.00
36190;BME280;22232;50.914;13.858;2023-03-03T05:10:57;98295.97;;;-2.27;100.00
36190;BME280;22232;50.914;13.858;2023-03-03T05:13:26;98291.69;;;-2.28;100.00
36190;BME280;22232;50.914;13.858;2023-03-03T05:15:54;98296.38;;;-2.22;100.00
36190;BME280;22232;50.914;13.858;2023-03-03T05:18:23;98296.81;;;-2.27;100.00
36190;BME280;22232;50.914;13.858;2023-03-03T05:20:51;98294.19;;;-2.17;100.00
36190;BME280;22232;50.914;13.858;2023-03-03T05:23:20;98294.19;;;-2.17;100.00
36190;BME280;22232;50.914;13.858;2023-03-03T05:25:48;98299.00;;;-2.13;100.00
36190;BME280;22232;50.914;13.858;2023-03-03T05:28:15;98299.56;;;-2.19;100.00
36190;BME280;22232;50.914;13.858;2023-03-03T05:30:43;98298.72;;;-2.19;100.00
36190;BME280;22232;50.914;13.858;2023-03-03T05:33:13;98304.09;;;-2.21;100.00
36190;BME280;22232;50.914;13.858;2023-03-03T05:35:41;98300.38;;;-2.18;100.00
36190;BME280;22232;50.914;13.858;2023-03-03T05:38:27;98296.09;;;-2.19;100.00
36190;BME280;22232;50.914;13.858;2023-03-03T05:40:55;98286.63;;;-2.20;100.00
36190;BME280;22232;50.914;13.858;2023-03-03T05:43:22;98300.22;;;-2.17;100.00
36190;BME280;22232;50.914;13.858;2023-03-03T05:45:54;98298.03;;;-2.12;100.00
36190;BME280;22232;50.914;13.858;2023-03-03T05:48:22;98298.72;;;-2.10;100.00
36190;BME280;22232;50.914;13.858;2023-03-03T05:50:50;98292.66;;;-2.10;100.00
36190;BME280;22232;50.914;13.858;2023-03-03T05:53:17;98278.78;;;-2.11;100.00
36190;BME280;22232;50.914;13.858;2023-03-03T05:55:45;98280.00;;;-2.05;100.00
36190;BME280;22232;50.914;13.858;2023-03-03T05:58:12;98297.06;;;-2.11;100.00
36190;BME280;22232;50.914;13.858;2023-03-03T06:00:40;98305.03;;;-2.02;100.00
36190;BME280;22232;50.914;13.858;2023-03-03T06:03:07;98293.50;;;-2.00;100.00
36190;BME280;22232;50.914;13.858;2023-03-03T06:05:35;98283.97;;;-2.01;100.00
36190;BME280;22232;50.914;13.858;2023-03-03T06:08:02;98291.00;;;-1.92;100.00
36190;BME280;22232;50.914;13.858;2023-03-03T06:10:30;98289.06;;;-1.90;100.00
36190;BME280;22232;50.914;13.858;2023-03-03T06:13:02;98287.97;;;-1.87;100.00
36190;BME280;22232;50.914;13.858;2023-03-03T06:15:30;98279.16;;;-1.86;100.00
36190;BME280;22232;50.914;13.858;2023-03-03T06:17:57;98285.75;;;-1.82;100.00
36190;BME280;22232;50.914;13.858;2023-03-03T06:20:25;98287.13;;;-1.78;100.00
36190;BME280;22232;50.914;13.858;2023-03-03T06:22:59;98287.56;;;-1.82;100.00
36190;BME280;22232;50.914;13.858;2023-03-03T06:25:27;98296.19;;;-1.72;100.00
36190;BME280;22232;50.914;13.858;2023-03-03T06:27:56;98285.31;;;-1.68;100.00
36190;BME280;22232;50.914;13.858;2023-03-03T06:30:24;98293.16;;;-1.68;100.00
36190;BME280;22232;50.914;13.858;2023-03-03T06:32:53;98286.72;;;-1.73;100.00
36190;BME280;22232;50.914;13.858;2023-03-03T06:35:21;98288.63;;;-1.75;100.00
36190;BME280;22232;50.914;13.858;2023-03-03T06:37:48;98293.59;;;-1.72;100.00
36190;BME280;22232;50.914;13.858;2023-03-03T06:40:17;98287.25;;;-1.70;100.00
36190;BME280;22232;50.914;13.858;2023-03-03T06:42:44;98288.63;;;-1.66;100.00
36190;BME280;22232;50.914;13.858;2023-03-03T06:45:12;98282.13;;;-1.62;100.00
36190;BME280;22232;50.914;13.858;2023-03-03T06:47:40;98288.28;;;-1.53;100.00
36190;BME280;22232;50.914;13.858;2023-03-03T06:50:10;98299.44;;;-1.51;100.00
36190;BME280;22232;50.914;13.858;2023-03-03T06:52:38;98307.84;;;-1.47;100.00
36190;BME280;22232;50.914;13.858;2023-03-03T06:55:20;98308.53;;;-1.45;100.00
36190;BME280;22232;50.914;13.858;2023-03-03T06:57:48;98310.63;;;-1.68;100.00
36190;BME280;22232;50.914;13.858;2023-03-03T07:00:24;98312.28;;;-1.57;100.00
36190;BME280;22232;50.914;13.858;2023-03-03T07:05:40;98308.97;;;-1.59;100.00
36190;BME280;22232;50.914;13.858;2023-03-03T07:08:19;98316.97;;;-1.61;100.00
36190;BME280;22232;50.914;13.858;2023-03-03T07:10:47;98326.03;;;-1.65;100.00
36190;BME280;22232;50.914;13.858;2023-03-03T07:13:16;98336.41;;;-1.73;100.00
36190;BME280;22232;50.914;13.858;2023-03-03T07:15:45;98337.22;;;-1.73;100.00
36190;BME280;22232;50.914;13.858;2023-03-03T07:18:37;98348.91;;;-1.67;100.00
36190;BME280;22232;50.914;13.858;2023-03-03T07:21:13;98343.97;;;-1.70;100.00
36190;BME280;22232;50.914;13.858;2023-03-03T07:23:43;98356.75;;;-1.77;100.00
36190;BME280;22232;50.914;13.858;2023-03-03T07:26:14;98341.34;;;-1.70;100.00
36190;BME280;22232;50.914;13.858;2023-03-03T07:28:43;98345.16;;;-1.65;100.00
36190;BME280;22232;50.914;13.858;2023-03-03T07:31:26;98339.66;;;-1.62;100.00
36190;BME280;22232;50.914;13.858;2023-03-03T07:33:56;98342.41;;;-1.53;100.00
36190;BME280;22232;50.914;13.858;2023-03-03T07:38:58;98341.97;;;-1.39;100.00
36190;BME280;22232;50.914;13.858;2023-03-03T07:41:27;98345.81;;;-1.33;100.00
36190;BME280;22232;50.914;13.858;2023-03-03T07:44:47;98347.03;;;-1.28;100.00
36190;BME280;22232;50.914;13.858;2023-03-03T07:47:23;98348.13;;;-1.21;100.00
36190;BME280;22232;50.914;13.858;2023-03-03T07:49:57;98353.19;;;-1.19;100.00
36190;BME280;22232;50.914;13.858;2023-03-03T07:52:38;98351.03;;;-1.24;100.00
36190;BME280;22232;50.914;13.858;2023-03-03T07:57:45;98364.50;;;-1.19;100.00
36190;BME280;22232;50.914;13.858;2023-03-03T08:02:46;98363.94;;;-1.22;100.00
36190;BME280;22232;50.914;13.858;2023-03-03T08:07:49;98360.19;;;-1.10;100.00
36190;BME280;22232;50.914;13.858;2023-03-03T08:10:48;98355.09;;;-1.11;100.00
36190;BME280;22232;50.914;13.858;2023-03-03T08:13:22;98351.91;;;-1.05;100.00
36190;BME280;22232;50.914;13.858;2023-03-03T08:15:59;98358.22;;;-0.98;100.00
36190;BME280;22232;50.914;13.858;2023-03-03T08:18:41;98368.94;;;-0.92;100.00
36190;BME280;22232;50.914;13.858;2023-03-03T08:21:23;98356.78;;;-0.83;100.00
36190;BME280;22232;50.914;13.858;2023-03-03T08:23:51;98371.84;;;-0.85;100.00
36190;BME280;22232;50.914;13.858;2023-03-03T08:26:21;98362.19;;;-0.84;100.00
36190;BME280;22232;50.914;13.858;2023-03-03T08:28:49;98363.53;;;-0.80;100.00
36190;BME280;22232;50.914;13.858;2023-03-03T08:31:17;98369.69;;;-0.72;100.00
36190;BME280;22232;50.914;13.858;2023-03-03T08:34:05;98357.00;;;-0.76;100.00
36190;BME280;22232;50.914;13.858;2023-03-03T08:36:32;98348.56;;;-0.70;100.00
36190;BME280;22232;50.914;13.858;2023-03-03T08:39:02;98349.13;;;-0.66;100.00
36190;BME280;22232;50.914;13.858;2023-03-03T08:41:30;98349.78;;;-0.64;100.00
36190;BME280;22232;50.914;13.858;2023-03-03T08:43:58;98352.81;;;-0.59;100.00
36190;BME280;22232;50.914;13.858;2023-03-03T08:46:25;98350.34;;;-0.61;100.00
36190;BME280;22232;50.914;13.858;2023-03-03T08:48:53;98355.53;;;-0.51;100.00
36190;BME280;22232;50.914;13.858;2023-03-03T08:51:20;98365.47;;;-0.55;100.00
36190;BME280;22232;50.914;13.858;2023-03-03T08:53:48;98368.63;;;-0.51;100.00
36190;BME280;22232;50.914;13.858;2023-03-03T08:56:15;98365.31;;;-0.53;100.00
36190;BME280;22232;50.914;13.858;2023-03-03T08:58:43;98369.88;;;-0.55;100.00
36190;BME280;22232;50.914;13.858;2023-03-03T09:01:30;98373.75;;;-0.59;100.00
36190;BME280;22232;50.914;13.858;2023-03-03T09:03:58;98369.59;;;-0.52;100.00
36190;BME280;22232;50.914;13.858;2023-03-03T09:06:26;98360.09;;;-0.53;100.00
36190;BME280;22232;50.914;13.858;2023-03-03T09:08:54;98371.09;;;-0.50;100.00
36190;BME280;22232;50.914;13.858;2023-03-03T09:11:25;98368.69;;;-0.43;100.00
36190;BME280;22232;50.914;13.858;2023-03-03T09:14:14;98360.13;;;-0.35;100.00
36190;BME280;22232;50.914;13.858;2023-03-03T09:16:49;98370.44;;;-0.34;100.00
36190;BME280;22232;50.914;13.858;2023-03-03T09:21:50;98378.97;;;-0.32;100.00
36190;BME280;22232;50.914;13.858;2023-03-03T09:24:27;98376.75;;;-0.27;100.00
36190;BME280;22232;50.914;13.858;2023-03-03T09:26:56;98377.34;;;-0.33;100.00
36190;BME280;22232;50.914;13.858;2023-03-03T09:29:36;98377.06;;;-0.30;100.00
36190;BME280;22232;50.914;13.858;2023-03-03T09:32:26;98378.56;;;-0.27;100.00
36190;BME280;22232;50.914;13.858;2023-03-03T09:34:56;98387.00;;;-0.33;100.00
36190;BME280;22232;50.914;13.858;2023-03-03T09:37:35;98388.34;;;-0.29;100.00
36190;BME280;22232;50.914;13.858;2023-03-03T09:40:39;98384.97;;;-0.21;100.00
36190;BME280;22232;50.914;13.858;2023-03-03T09:43:36;98388.44;;;-0.03;100.00
36190;BME280;22232;50.914;13.858;2023-03-03T09:46:11;98389.66;;;0.03;100.00
36190;BME280;22232;50.914;13.858;2023-03-03T09:48:51;98403.28;;;-0.12;100.00
36190;BME280;22232;50.914;13.858;2023-03-03T10:08:35;98421.09;;;-1.08;100.00
36190;BME280;22232;50.914;13.858;2023-03-03T10:19:14;98417.97;;;-0.47;100.00
36190;BME280;22232;50.914;13.858;2023-03-03T10:22:07;98410.56;;;-0.51;100.00
36190;BME280;22232;50.914;13.858;2023-03-03T10:24:50;98423.91;;;-0.44;100.00
36190;BME280;22232;50.914;13.858;2023-03-03T10:30:34;98421.91;;;-0.70;100.00
36190;BME280;22232;50.914;13.858;2023-03-03T10:41:59;98432.22;;;-0.96;100.00
36190;BME280;22232;50.914;13.858;2023-03-03T10:50:45;98426.06;;;-0.40;100.00
36190;BME280;22232;50.914;13.858;2023-03-03T10:53:20;98421.81;;;-0.41;100.00
36190;BME280;22232;50.914;13.858;2023-03-03T10:56:36;98422.66;;;-0.22;100.00
36190;BME280;22232;50.914;13.858;2023-03-03T11:20:45;98412.91;;;0.15;100.00
36190;BME280;22232;50.914;13.858;2023-03-03T11:31:55;98406.28;;;0.29;100.00
36190;BME280;22232;50.914;13.858;2023-03-03T11:34:51;98408.47;;;0.34;100.00
36190;BME280;22232;50.914;13.858;2023-03-03T11:39:57;98398.59;;;0.28;100.00
36190;BME280;22232;50.914;13.858;2023-03-03T11:42:50;98395.88;;;0.19;100.00
36190;BME280;22232;50.914;13.858;2023-03-03T11:45:33;98392.75;;;0.16;100.00
36190;BME280;22232;50.914;13.858;2023-03-03T11:48:38;98397.69;;;0.01;100.00
36190;BME280;22232;50.914;13.858;2023-03-03T11:51:13;98400.75;;;0.14;100.00
36190;BME280;22232;50.914;13.858;2023-03-03T11:54:01;98399.78;;;0.15;100.00
36190;BME280;22232;50.914;13.858;2023-03-03T11:59:06;98396.47;;;0.13;100.00
36190;BME280;22232;50.914;13.858;2023-03-03T12:04:33;98392.19;;;0.30;100.00
36190;BME280;22232;50.914;13.858;2023-03-03T12:31:49;98374.00;;;0.55;100.00
36190;BME280;22232;50.914;13.858;2023-03-03T12:34:23;98371.25;;;0.56;100.00
36190;BME280;22232;50.914;13.858;2023-03-03T12:39:55;98365.34;;;0.80;100.00
36190;BME280;22232;50.914;13.858;2023-03-03T12:45:34;98364.78;;;0.95;100.00
36190;BME280;22232;50.914;13.858;2023-03-03T12:48:00;98365.53;;;0.87;100.00
36190;BME280;22232;50.914;13.858;2023-03-03T12:59:32;98348.59;;;1.07;100.00
36190;BME280;22232;50.914;13.858;2023-03-03T13:02:11;98353.53;;;1.19;100.00
36190;BME280;22232;50.914;13.858;2023-03-03T13:05:22;98344.09;;;1.00;100.00
36190;BME280;22232;50.914;13.858;2023-03-03T13:07:55;98347.78;;;1.15;100.00
36190;BME280;22232;50.914;13.858;2023-03-03T13:10:59;98340.63;;;1.25;100.00
36190;BME280;22232;50.914;13.858;2023-03-03T13:16:27;98336.50;;;1.23;100.00
36190;BME280;22232;50.914;13.858;2023-03-03T13:19:19;98335.69;;;1.30;100.00
36190;BME280;22232;50.914;13.858;2023-03-03T13:21:54;98333.59;;;1.34;100.00
36190;BME280;22232;50.914;13.858;2023-03-03T13:24:36;98337.78;;;1.19;100.00
36190;BME280;22232;50.914;13.858;2023-03-03T13:27:15;98344.38;;;1.23;100.00
36190;BME280;22232;50.914;13.858;2023-03-03T13:32:20;98343.41;;;0.89;100.00
36190;BME280;22232;50.914;13.858;2023-03-03T13:37:32;98344.16;;;0.82;100.00
36190;BME280;22232;50.914;13.858;2023-03-03T13:45:22;98350.28;;;0.82;100.00
36190;BME280;22232;50.914;13.858;2023-03-03T13:58:48;98337.56;;;1.04;100.00
36190;BME280;22232;50.914;13.858;2023-03-03T14:01:49;98332.28;;;0.96;100.00
36190;BME280;22232;50.914;13.858;2023-03-03T14:07:33;98324.63;;;0.76;100.00
36190;BME280;22232;50.914;13.858;2023-03-03T14:10:12;98329.97;;;0.93;100.00
36190;BME280;22232;50.914;13.858;2023-03-03T14:12:50;98318.31;;;0.95;100.00
36190;BME280;22232;50.914;13.858;2023-03-03T14:15:27;98314.25;;;1.01;100.00
36190;BME280;22232;50.914;13.858;2023-03-03T14:21:18;98307.19;;;1.09;100.00
36190;BME280;22232;50.914;13.858;2023-03-03T14:24:33;98314.75;;;1.12;100.00
36190;BME280;22232;50.914;13.858;2023-03-03T14:26:57;98310.19;;;1.14;100.00
36190;BME280;22232;50.914;13.858;2023-03-03T14:32:20;98302.63;;;1.11;100.00
36190;BME280;22232;50.914;13.858;2023-03-03T14:34:58;98306.38;;;1.09;100.00
36190;BME280;22232;50.914;13.858;2023-03-03T14:37:41;98304.25;;;1.04;100.00
36190;BME280;22232;50.914;13.858;2023-03-03T14:47:57;98300.72;;;1.30;100.00
36190;BME280;22232;50.914;13.858;2023-03-03T14:50:35;98294.00;;;1.35;100.00
36190;BME280;22232;50.914;13.858;2023-03-03T14:55:48;98299.94;;;1.03;100.00
36190;BME280;22232;50.914;13.858;2023-03-03T14:58:31;98294.06;;;1.01;100.00
36190;BME280;22232;50.914;13.858;2023-03-03T15:01:15;98292.38;;;1.00;100.00
36190;BME280;22232;50.914;13.858;2023-03-03T15:04:31;98292.19;;;0.94;100.00
36190;BME280;22232;50.914;13.858;2023-03-03T15:06:48;98290.13;;;1.05;100.00
36190;BME280;22232;50.914;13.858;2023-03-03T15:09:46;98283.56;;;1.01;100.00
36190;BME280;22232;50.914;13.858;2023-03-03T15:17:42;98283.38;;;0.95;100.00
36190;BME280;22232;50.914;13.858;2023-03-03T15:25:32;98288.06;;;0.83;100.00
36190;BME280;22232;50.914;13.858;2023-03-03T15:28:35;98286.09;;;0.85;100.00
36190;BME280;22232;50.914;13.858;2023-03-03T15:33:51;98287.94;;;0.58;100.00
36190;BME280;22232;50.914;13.858;2023-03-03T15:36:38;98290.50;;;0.50;100.00
36190;BME280;22232;50.914;13.858;2023-03-03T15:53:16;98285.19;;;0.16;100.00
36190;BME280;22232;50.914;13.858;2023-03-03T15:56:13;98283.84;;;0.12;100.00
36190;BME280;22232;50.914;13.858;2023-03-03T16:04:13;98288.72;;;0.25;100.00
36190;BME280;22232;50.914;13.858;2023-03-03T16:10:02;98291.34;;;0.07;100.00
36190;BME280;22232;50.914;13.858;2023-03-03T16:15:20;98294.28;;;0.04;100.00
36190;BME280;22232;50.914;13.858;2023-03-03T16:18:00;98293.31;;;-0.13;100.00
36190;BME280;22232;50.914;13.858;2023-03-03T16:23:19;98294.81;;;-0.29;100.00
36190;BME280;22232;50.914;13.858;2023-03-03T16:28:46;98291.16;;;-0.36;100.00
36190;BME280;22232;50.914;13.858;2023-03-03T16:31:49;98292.56;;;-0.41;100.00
36190;BME280;22232;50.914;13.858;2023-03-03T16:34:55;98294.66;;;-0.45;100.00
36190;BME280;22232;50.914;13.858;2023-03-03T16:40:00;98297.06;;;-0.52;100.00
36190;BME280;22232;50.914;13.858;2023-03-03T16:42:31;98300.63;;;-0.53;100.00
36190;BME280;22232;50.914;13.858;2023-03-03T16:45:21;98298.31;;;-0.56;100.00
36190;BME280;22232;50.914;13.858;2023-03-03T16:56:33;98303.38;;;-0.72;100.00
36190;BME280;22232;50.914;13.858;2023-03-03T16:59:18;98300.38;;;-0.77;100.00
36190;BME280;22232;50.914;13.858;2023-03-03T17:02:02;98306.44;;;-0.77;100.00
36190;BME280;22232;50.914;13.858;2023-03-03T17:04:58;98301.72;;;-0.73;100.00
36190;BME280;22232;50.914;13.858;2023-03-03T17:10:31;98304.28;;;-0.81;100.00
36190;BME280;22232;50.914;13.858;2023-03-03T17:15:59;98303.44;;;-0.82;100.00
36190;BME280;22232;50.914;13.858;2023-03-03T17:18:55;98305.97;;;-0.90;100.00
36190;BME280;22232;50.914;13.858;2023-03-03T17:35:17;98305.50;;;-0.85;100.00
36190;BME280;22232;50.914;13.858;2023-03-03T17:38:19;98316.97;;;-0.86;100.00
36190;BME280;22232;50.914;13.858;2023-03-03T17:43:56;98312.56;;;-0.86;100.00
36190;BME280;22232;50.914;13.858;2023-03-03T17:55:04;98315.31;;;-0.87;100.00
36190;BME280;22232;50.914;13.858;2023-03-03T18:17:22;98320.63;;;-0.97;100.00
36190;BME280;22232;50.914;13.858;2023-03-03T18:20:25;98324.75;;;-1.04;100.00
36190;BME280;22232;50.914;13.858;2023-03-03T18:22:55;98328.75;;;-1.00;100.00